sensor_id;sensor_type;location;lat;lon;timestamp;pressure;altitude;pressure_sealevel;temperature;humidity
19736;BME280;32064;49.310;8.646;2023-05-10T00:00:41;99892.44;;;18.06;87.96
19736;BME280;32064;49.310;8.646;2023-05-10T00:03:07;99885.97;;;18.00;87.58
19736;BME280;32064;49.310;8.646;2023-05-10T00:05:32;99892.16;;;18.01;88.14
19736;BME280;32064;49.310;8.646;2023-05-10T00:07:58;99886.97;;;17.99;86.73
19736;BME280;32064;49.310;8.646;2023-05-10T00:10:23;99893.13;;;18.00;86.53
19736;BME280;32064;49.310;8.646;2023-05-10T00:12:49;99896.78;;;17.99;88.28
19736;BME280;32064;49.310;8.646;2023-05-10T00:15:14;99897.97;;;17.96;88.29
19736;BME280;32064;49.310;8.646;2023-05-10T00:17:40;99899.78;;;17.95;88.41
19736;BME280;32064;49.310;8.646;2023-05-10T00:20:06;99898.78;;;17.97;87.00
19736;BME280;32064;49.310;8.646;2023-05-10T00:22:31;99894.97;;;17.91;88.36
19736;BME280;32064;49.310;8.646;2023-05-10T00:24:57;99897.13;;;17.87;88.46
19736;BME280;32064;49.310;8.646;2023-05-10T00:27:23;99890.66;;;17.90;87.31
19736;BME280;32064;49.310;8.646;2023-05-10T00:29:48;99883.00;;;17.87;86.85
19736;BME280;32064;49.310;8.646;2023-05-10T00:32:14;99889.31;;;17.86;87.33
19736;BME280;32064;49.310;8.646;2023-05-10T00:34:39;99893.66;;;17.87;87.51
19736;BME280;32064;49.310;8.646;2023-05-10T00:37:05;99888.97;;;17.89;87.88
19736;BME280;32064;49.310;8.646;2023-05-10T00:39:30;99884.50;;;17.89;87.20
19736;BME280;32064;49.310;8.646;2023-05-10T00:41:56;99895.97;;;17.90;87.29
19736;BME280;32064;49.310;8.646;2023-05-10T00:44:21;99885.66;;;17.87;86.99
19736;BME280;32064;49.310;8.646;2023-05-10T00:46:47;99898.31;;;17.85;88.78
19736;BME280;32064;49.310;8.646;2023-05-10T00:49:13;99894.81;;;17.84;88.33
19736;BME280;32064;49.310;8.646;2023-05-10T00:51:38;99893.31;;;17.82;87.40
19736;BME280;32064;49.310;8.646;2023-05-10T00:54:04;99907.09;;;17.85;88.91
19736;BME280;32064;49.310;8.646;2023-05-10T00:56:30;99900.81;;;17.86;88.84
19736;BME280;32064;49.310;8.646;2023-05-10T00:58:56;99900.63;;;17.88;87.71
19736;BME280;32064;49.310;8.646;2023-05-10T01:01:22;99896.94;;;17.89;87.99
19736;BME280;32064;49.310;8.646;2023-05-10T01:03:48;99895.97;;;17.90;88.41
19736;BME280;32064;49.310;8.646;2023-05-10T01:06:13;99903.28;;;17.88;88.78
19736;BME280;32064;49.310;8.646;2023-05-10T01:08:39;99902.47;;;17.87;88.39
19736;BME280;32064;49.310;8.646;2023-05-10T01:11:06;99900.97;;;17.85;87.33
19736;BME280;32064;49.310;8.646;2023-05-10T01:13:39;99910.56;;;17.78;87.97
19736;BME280;32064;49.310;8.646;2023-05-10T01:16:06;99911.91;;;17.73;87.95
19736;BME280;32064;49.310;8.646;2023-05-10T01:18:39;99911.22;;;17.71;88.40
19736;BME280;32064;49.310;8.646;2023-05-10T01:21:17;99909.09;;;17.75;88.07
19736;BME280;32064;49.310;8.646;2023-05-10T01:24:12;99916.41;;;17.73;87.31
19736;BME280;32064;49.310;8.646;2023-05-10T01:29:39;99909.72;;;17.69;86.70
19736;BME280;32064;49.310;8.646;2023-05-10T01:35:11;99911.25;;;17.55;88.08
19736;BME280;32064;49.310;8.646;2023-05-10T01:37:44;99905.75;;;17.57;88.18
19736;BME280;32064;49.310;8.646;2023-05-10T01:40:23;99911.75;;;17.59;87.58
19736;BME280;32064;49.310;8.646;2023-05-10T01:42:59;99910.91;;;17.58;86.52
19736;BME280;32064;49.310;8.646;2023-05-10T01:45:41;99913.91;;;17.55;87.30
19736;BME280;32064;49.310;8.646;2023-05-10T01:48:10;99914.88;;;17.54;88.10
19736;BME280;32064;49.310;8.646;2023-05-10T01:50:38;99923.88;;;17.53;86.59
19736;BME280;32064;49.310;8.646;2023-05-10T01:53:07;99924.38;;;17.57;86.73
19736;BME280;32064;49.310;8.646;2023-05-10T01:55:39;99926.03;;;17.49;87.37
19736;BME280;32064;49.310;8.646;2023-05-10T01:58:13;99916.69;;;17.45;86.98
19736;BME280;32064;49.310;8.646;2023-05-10T02:00:44;99916.56;;;17.47;87.59
19736;BME280;32064;49.310;8.646;2023-05-10T02:03:10;99923.84;;;17.45;87.53
19736;BME280;32064;49.310;8.646;2023-05-10T02:05:38;99929.31;;;17.43;88.13
19736;BME280;32064;49.310;8.646;2023-05-10T02:08:06;99925.16;;;17.41;86.74
19736;BME280;32064;49.310;8.646;2023-05-10T02:10:36;99923.50;;;17.40;86.65
19736;BME280;32064;49.310;8.646;2023-05-10T02:13:05;99936.13;;;17.38;86.39
19736;BME280;32064;49.310;8.646;2023-05-10T02:15:33;99934.63;;;17.35;87.11
19736;BME280;32064;49.310;8.646;2023-05-10T02:17:59;99932.28;;;17.32;88.14
19736;BME280;32064;49.310;8.646;2023-05-10T02:20:25;99939.44;;;17.32;87.84
19736;BME280;32064;49.310;8.646;2023-05-10T02:22:54;99940.44;;;17.31;86.60
19736;BME280;32064;49.310;8.646;2023-05-10T02:25:21;99939.09;;;17.26;87.72
19736;BME280;32064;49.310;8.646;2023-05-10T02:27:48;99955.03;;;17.26;87.56
19736;BME280;32064;49.310;8.646;2023-05-10T02:30:14;99950.59;;;17.27;88.04
19736;BME280;32064;49.310;8.646;2023-05-10T02:32:41;99951.75;;;17.24;87.87
19736;BME280;32064;49.310;8.646;2023-05-10T02:35:08;99950.72;;;17.25;86.96
19736;BME280;32064;49.310;8.646;2023-05-10T02:37:39;99947.75;;;17.28;86.60
19736;BME280;32064;49.310;8.646;2023-05-10T02:40:05;99952.25;;;17.28;87.36
19736;BME280;32064;49.310;8.646;2023-05-10T02:42:36;99954.91;;;17.28;86.95
19736;BME280;32064;49.310;8.646;2023-05-10T02:45:07;99943.44;;;17.27;87.24
19736;BME280;32064;49.310;8.646;2023-05-10T02:47:33;99948.91;;;17.26;87.91
19736;BME280;32064;49.310;8.646;2023-05-10T02:49:59;99953.25;;;17.27;87.67
19736;BME280;32064;49.310;8.646;2023-05-10T02:52:28;99957.06;;;17.24;87.60
19736;BME280;32064;49.310;8.646;2023-05-10T02:54:56;99955.91;;;17.27;88.36
19736;BME280;32064;49.310;8.646;2023-05-10T02:57:26;99957.09;;;17.33;86.96
19736;BME280;32064;49.310;8.646;2023-05-10T02:59:52;99965.38;;;17.30;88.13
19736;BME280;32064;49.310;8.646;2023-05-10T03:02:18;99954.06;;;17.27;87.48
19736;BME280;32064;49.310;8.646;2023-05-10T03:04:45;99960.72;;;17.32;87.67
19736;BME280;32064;49.310;8.646;2023-05-10T03:07:10;99955.25;;;17.33;88.19
19736;BME280;32064;49.310;8.646;2023-05-10T03:09:36;99956.91;;;17.34;88.11
19736;BME280;32064;49.310;8.646;2023-05-10T03:17:25;99955.56;;;17.30;87.43
19736;BME280;32064;49.310;8.646;2023-05-10T03:19:58;99948.44;;;17.31;88.76
19736;BME280;32064;49.310;8.646;2023-05-10T03:22:38;99953.25;;;17.27;88.87
19736;BME280;32064;49.310;8.646;2023-05-10T03:25:07;99959.03;;;17.22;87.37
19736;BME280;32064;49.310;8.646;2023-05-10T03:27:36;99960.38;;;17.18;88.26
19736;BME280;32064;49.310;8.646;2023-05-10T03:30:05;99962.69;;;17.21;87.73
19736;BME280;32064;49.310;8.646;2023-05-10T03:32:31;99967.84;;;17.23;88.49
19736;BME280;32064;49.310;8.646;2023-05-10T03:34:59;99968.16;;;17.20;87.67
19736;BME280;32064;49.310;8.646;2023-05-10T03:37:24;99965.97;;;17.15;87.97
19736;BME280;32064;49.310;8.646;2023-05-10T03:39:50;99968.31;;;17.10;87.47
19736;BME280;32064;49.310;8.646;2023-05-10T03:42:15;99965.47;;;17.12;88.71
19736;BME280;32064;49.310;8.646;2023-05-10T03:44:42;99982.94;;;17.14;87.55
19736;BME280;32064;49.310;8.646;2023-05-10T03:47:08;99977.63;;;17.14;87.29
19736;BME280;32064;49.310;8.646;2023-05-10T03:49:33;99975.47;;;17.18;87.60
19736;BME280;32064;49.310;8.646;2023-05-10T03:51:59;99984.44;;;17.17;88.80
19736;BME280;32064;49.310;8.646;2023-05-10T03:54:24;99983.59;;;17.16;87.23
19736;BME280;32064;49.310;8.646;2023-05-10T03:56:50;99984.44;;;17.17;89.09
19736;BME280;32064;49.310;8.646;2023-05-10T03:59:16;99980.78;;;17.18;88.08
19736;BME280;32064;49.310;8.646;2023-05-10T04:01:41;99988.25;;;17.14;88.05
19736;BME280;32064;49.310;8.646;2023-05-10T04:04:06;99989.56;;;17.10;87.86
19736;BME280;32064;49.310;8.646;2023-05-10T04:06:32;99996.69;;;17.10;87.55
19736;BME280;32064;49.310;8.646;2023-05-10T04:08:58;99990.88;;;17.06;88.62
19736;BME280;32064;49.310;8.646;2023-05-10T04:11:25;99997.34;;;17.03;88.06
19736;BME280;32064;49.310;8.646;2023-05-10T04:13:51;99991.19;;;17.03;89.14
19736;BME280;32064;49.310;8.646;2023-05-10T04:16:16;100001.81;;;17.03;89.16
19736;BME280;32064;49.310;8.646;2023-05-10T04:18:41;100009.13;;;17.01;89.17
19736;BME280;32064;49.310;8.646;2023-05-10T04:21:13;100009.59;;;16.96;88.65
19736;BME280;32064;49.310;8.646;2023-05-10T04:23:39;100006.78;;;16.98;89.39
19736;BME280;32064;49.310;8.646;2023-05-10T04:26:05;100002.97;;;17.00;88.00
19736;BME280;32064;49.310;8.646;2023-05-10T04:28:30;100010.13;;;17.00;87.96
19736;BME280;32064;49.310;8.646;2023-05-10T04:31:02;100012.09;;;16.98;89.02
19736;BME280;32064;49.310;8.646;2023-05-10T04:33:28;100001.47;;;16.98;89.13
19736;BME280;32064;49.310;8.646;2023-05-10T04:35:53;100010.13;;;17.00;88.53
19736;BME280;32064;49.310;8.646;2023-05-10T04:38:19;100004.66;;;17.01;89.27
19736;BME280;32064;49.310;8.646;2023-05-10T04:40:44;100015.13;;;17.03;88.47
19736;BME280;32064;49.310;8.646;2023-05-10T04:43:09;100006.47;;;17.01;88.99
19736;BME280;32064;49.310;8.646;2023-05-10T04:45:35;100012.31;;;17.04;88.48
19736;BME280;32064;49.310;8.646;2023-05-10T04:48:00;100015.47;;;17.08;89.48
19736;BME280;32064;49.310;8.646;2023-05-10T04:50:26;100007.00;;;17.04;88.50
19736;BME280;32064;49.310;8.646;2023-05-10T04:52:51;100010.97;;;17.09;87.93
19736;BME280;32064;49.310;8.646;2023-05-10T04:55:17;100010.16;;;17.08;89.07
19736;BME280;32064;49.310;8.646;2023-05-10T04:57:42;100012.50;;;17.11;88.62
19736;BME280;32064;49.310;8.646;2023-05-10T05:00:08;100019.31;;;17.14;89.01
19736;BME280;32064;49.310;8.646;2023-05-10T05:02:33;100012.19;;;17.14;89.17
19736;BME280;32064;49.310;8.646;2023-05-10T05:04:59;100020.50;;;17.19;88.49
19736;BME280;32064;49.310;8.646;2023-05-10T05:07:24;100018.22;;;17.24;88.18
19736;BME280;32064;49.310;8.646;2023-05-10T05:09:50;100024.84;;;17.28;87.60
19736;BME280;32064;49.310;8.646;2023-05-10T05:12:15;100027.38;;;17.30;87.42
19736;BME280;32064;49.310;8.646;2023-05-10T05:14:41;100029.53;;;17.35;87.85
19736;BME280;32064;49.310;8.646;2023-05-10T05:17:06;100023.25;;;17.36;88.41
19736;BME280;32064;49.310;8.646;2023-05-10T05:19:32;100024.91;;;17.37;87.36
19736;BME280;32064;49.310;8.646;2023-05-10T05:21:58;100025.72;;;17.37;87.58
19736;BME280;32064;49.310;8.646;2023-05-10T05:24:23;100021.75;;;17.41;88.44
19736;BME280;32064;49.310;8.646;2023-05-10T05:26:48;100025.94;;;17.44;88.12
19736;BME280;32064;49.310;8.646;2023-05-10T05:29:14;100015.13;;;17.45;86.87
19736;BME280;32064;49.310;8.646;2023-05-10T05:31:39;100020.59;;;17.44;87.16
19736;BME280;32064;49.310;8.646;2023-05-10T05:34:04;100032.72;;;17.46;86.64
19736;BME280;32064;49.310;8.646;2023-05-10T05:36:30;100038.91;;;17.47;86.31
19736;BME280;32064;49.310;8.646;2023-05-10T05:38:56;100037.06;;;17.47;86.72
19736;BME280;32064;49.310;8.646;2023-05-10T05:41:22;100045.41;;;17.53;87.87
19736;BME280;32064;49.310;8.646;2023-05-10T05:43:49;100045.41;;;17.53;87.32
19736;BME280;32064;49.310;8.646;2023-05-10T05:46:14;100047.22;;;17.60;86.84
19736;BME280;32064;49.310;8.646;2023-05-10T05:48:39;100045.09;;;17.64;85.96
19736;BME280;32064;49.310;8.646;2023-05-10T05:51:05;100048.41;;;17.66;86.42
19736;BME280;32064;49.310;8.646;2023-05-10T05:53:31;100058.44;;;17.72;86.40
19736;BME280;32064;49.310;8.646;2023-05-10T05:55:57;100061.09;;;17.72;86.53
19736;BME280;32064;49.310;8.646;2023-05-10T05:58:24;100058.22;;;17.65;86.94
19736;BME280;32064;49.310;8.646;2023-05-10T06:00:50;100062.38;;;17.60;86.42
19736;BME280;32064;49.310;8.646;2023-05-10T06:03:17;100057.56;;;17.63;87.52
19736;BME280;32064;49.310;8.646;2023-05-10T06:05:43;100067.72;;;17.68;86.79
19736;BME280;32064;49.310;8.646;2023-05-10T06:08:08;100072.56;;;17.72;87.64
19736;BME280;32064;49.310;8.646;2023-05-10T06:10:34;100073.41;;;17.73;86.68
19736;BME280;32064;49.310;8.646;2023-05-10T06:12:59;100068.41;;;17.70;87.72
19736;BME280;32064;49.310;8.646;2023-05-10T06:15:25;100078.03;;;17.71;87.84
19736;BME280;32064;49.310;8.646;2023-05-10T06:17:51;100072.91;;;17.69;87.48
19736;BME280;32064;49.310;8.646;2023-05-10T06:20:16;100075.56;;;17.78;87.35
19736;BME280;32064;49.310;8.646;2023-05-10T06:22:42;100093.34;;;17.77;86.42
19736;BME280;32064;49.310;8.646;2023-05-10T06:25:08;100088.41;;;17.82;87.43
19736;BME280;32064;49.310;8.646;2023-05-10T06:27:34;100091.75;;;17.84;88.10
19736;BME280;32064;49.310;8.646;2023-05-10T06:29:59;100098.25;;;17.90;87.01
19736;BME280;32064;49.310;8.646;2023-05-10T06:32:24;100097.44;;;17.98;86.86
19736;BME280;32064;49.310;8.646;2023-05-10T06:34:50;100099.94;;;17.99;86.80
19736;BME280;32064;49.310;8.646;2023-05-10T06:37:16;100094.63;;;17.99;86.81
19736;BME280;32064;49.310;8.646;2023-05-10T06:39:41;100100.13;;;17.98;87.33
19736;BME280;32064;49.310;8.646;2023-05-10T06:42:07;100104.09;;;18.02;86.38
19736;BME280;32064;49.310;8.646;2023-05-10T06:44:32;100100.44;;;18.03;86.80
19736;BME280;32064;49.310;8.646;2023-05-10T06:46:57;100103.09;;;18.03;87.31
19736;BME280;32064;49.310;8.646;2023-05-10T06:49:23;100107.44;;;18.04;86.33
19736;BME280;32064;49.310;8.646;2023-05-10T06:51:48;100108.94;;;18.06;88.11
19736;BME280;32064;49.310;8.646;2023-05-10T06:54:14;100117.91;;;18.05;87.22
19736;BME280;32064;49.310;8.646;2023-05-10T06:56:39;100113.25;;;17.99;87.85
19736;BME280;32064;49.310;8.646;2023-05-10T06:59:05;100114.41;;;17.97;86.82
19736;BME280;32064;49.310;8.646;2023-05-10T07:01:30;100116.09;;;17.98;87.49
19736;BME280;32064;49.310;8.646;2023-05-10T07:03:55;100121.59;;;18.04;87.06
19736;BME280;32064;49.310;8.646;2023-05-10T07:06:21;100118.94;;;18.12;86.66
19736;BME280;32064;49.310;8.646;2023-05-10T07:08:46;100124.63;;;18.17;87.48
19736;BME280;32064;49.310;8.646;2023-05-10T07:11:11;100116.63;;;18.34;85.74
19736;BME280;32064;49.310;8.646;2023-05-10T07:13:37;100119.31;;;18.50;85.56
19736;BME280;32064;49.310;8.646;2023-05-10T07:16:04;100116.66;;;18.58;85.55
19736;BME280;32064;49.310;8.646;2023-05-10T07:18:31;100113.31;;;18.73;85.64
19736;BME280;32064;49.310;8.646;2023-05-10T07:20:57;100122.00;;;18.83;84.53
19736;BME280;32064;49.310;8.646;2023-05-10T07:23:22;100116.81;;;18.98;84.70
19736;BME280;32064;49.310;8.646;2023-05-10T07:25:49;100113.63;;;19.11;84.30
19736;BME280;32064;49.310;8.646;2023-05-10T07:28:17;100118.44;;;19.15;83.58
19736;BME280;32064;49.310;8.646;2023-05-10T07:30:43;100120.28;;;19.15;83.21
19736;BME280;32064;49.310;8.646;2023-05-10T07:33:10;100122.97;;;19.06;82.97
19736;BME280;32064;49.310;8.646;2023-05-10T07:35:35;100119.78;;;19.19;82.83
19736;BME280;32064;49.310;8.646;2023-05-10T07:38:01;100118.75;;;19.37;82.81
19736;BME280;32064;49.310;8.646;2023-05-10T07:40:27;100125.47;;;19.64;81.29
19736;BME280;32064;49.310;8.646;2023-05-10T07:42:52;100128.31;;;20.02;80.43
19736;BME280;32064;49.310;8.646;2023-05-10T07:45:18;100130.00;;;20.26;79.56
19736;BME280;32064;49.310;8.646;2023-05-10T07:47:43;100123.81;;;20.48;78.15
19736;BME280;32064;49.310;8.646;2023-05-10T07:50:09;100120.50;;;20.69;78.36
19736;BME280;32064;49.310;8.646;2023-05-10T07:52:34;100116.91;;;20.62;78.30
19736;BME280;32064;49.310;8.646;2023-05-10T07:54:59;100117.00;;;20.69;77.97
19736;BME280;32064;49.310;8.646;2023-05-10T07:57:25;100118.50;;;20.71;78.32
19736;BME280;32064;49.310;8.646;2023-05-10T07:59:50;100127.75;;;20.60;77.81
19736;BME280;32064;49.310;8.646;2023-05-10T08:02:16;100116.13;;;20.53;77.69
19736;BME280;32064;49.310;8.646;2023-05-10T08:04:41;100120.31;;;20.48;77.49
19736;BME280;32064;49.310;8.646;2023-05-10T08:07:06;100113.88;;;20.65;76.84
19736;BME280;32064;49.310;8.646;2023-05-10T08:09:32;100124.78;;;20.78;76.23
19736;BME280;32064;49.310;8.646;2023-05-10T08:11:58;100134.16;;;20.74;75.58
19736;BME280;32064;49.310;8.646;2023-05-10T08:14:25;100121.81;;;20.73;75.78
19736;BME280;32064;49.310;8.646;2023-05-10T08:16:50;100132.31;;;20.75;74.80
19736;BME280;32064;49.310;8.646;2023-05-10T08:19:16;100134.22;;;20.89;74.78
19736;BME280;32064;49.310;8.646;2023-05-10T08:21:44;100134.41;;;20.88;75.31
19736;BME280;32064;49.310;8.646;2023-05-10T08:24:10;100141.25;;;21.05;75.18
19736;BME280;32064;49.310;8.646;2023-05-10T08:26:35;100139.69;;;21.11;74.44
19736;BME280;32064;49.310;8.646;2023-05-10T08:29:01;100134.25;;;21.34;73.80
19736;BME280;32064;49.310;8.646;2023-05-10T08:31:26;100133.28;;;22.01;72.09
19736;BME280;32064;49.310;8.646;2023-05-10T08:33:51;100144.16;;;22.29;69.87
19736;BME280;32064;49.310;8.646;2023-05-10T08:36:18;100140.56;;;22.64;70.28
19736;BME280;32064;49.310;8.646;2023-05-10T08:38:48;100145.47;;;22.82;68.62
19736;BME280;32064;49.310;8.646;2023-05-10T08:41:14;100139.91;;;22.84;68.82
19736;BME280;32064;49.310;8.646;2023-05-10T08:43:39;100138.47;;;23.09;67.39
19736;BME280;32064;49.310;8.646;2023-05-10T08:46:07;100138.28;;;23.11;67.49
19736;BME280;32064;49.310;8.646;2023-05-10T08:48:34;100150.50;;;22.92;67.63
19736;BME280;32064;49.310;8.646;2023-05-10T08:51:00;100156.59;;;22.79;67.55
19736;BME280;32064;49.310;8.646;2023-05-10T08:53:26;100148.75;;;22.56;67.81
19736;BME280;32064;49.310;8.646;2023-05-10T08:55:52;100151.47;;;22.41;67.74
19736;BME280;32064;49.310;8.646;2023-05-10T08:58:18;100155.63;;;22.23;67.53
19736;BME280;32064;49.310;8.646;2023-05-10T09:00:45;100154.69;;;22.15;66.09
19736;BME280;32064;49.310;8.646;2023-05-10T09:03:10;100155.88;;;21.91;66.14
19736;BME280;32064;49.310;8.646;2023-05-10T09:05:36;100160.84;;;21.80;66.15
19736;BME280;32064;49.310;8.646;2023-05-10T09:08:02;100161.06;;;21.63;66.50
19736;BME280;32064;49.310;8.646;2023-05-10T09:10:27;100164.59;;;21.49;66.72
19736;BME280;32064;49.310;8.646;2023-05-10T09:12:56;100158.84;;;21.37;67.29
19736;BME280;32064;49.310;8.646;2023-05-10T09:15:22;100159.38;;;21.18;66.12
19736;BME280;32064;49.310;8.646;2023-05-10T09:17:49;100170.06;;;21.18;66.12
19736;BME280;32064;49.310;8.646;2023-05-10T09:20:14;100166.81;;;21.22;66.54
19736;BME280;32064;49.310;8.646;2023-05-10T09:22:40;100159.41;;;21.47;65.51
19736;BME280;32064;49.310;8.646;2023-05-10T09:25:15;100164.19;;;21.67;64.68
19736;BME280;32064;49.310;8.646;2023-05-10T09:27:45;100161.06;;;21.78;65.23
19736;BME280;32064;49.310;8.646;2023-05-10T09:30:25;100167.69;;;21.82;64.66
19736;BME280;32064;49.310;8.646;2023-05-10T09:32:51;100173.28;;;22.17;63.81
19736;BME280;32064;49.310;8.646;2023-05-10T09:35:20;100167.91;;;22.32;61.83
19736;BME280;32064;49.310;8.646;2023-05-10T09:37:48;100179.38;;;22.47;63.06
19736;BME280;32064;49.310;8.646;2023-05-10T09:40:16;100180.63;;;22.66;63.07
19736;BME280;32064;49.310;8.646;2023-05-10T09:42:50;100180.09;;;22.56;61.43
19736;BME280;32064;49.310;8.646;2023-05-10T09:45:16;100183.22;;;22.81;61.13
19736;BME280;32064;49.310;8.646;2023-05-10T09:47:41;100178.72;;;23.09;60.07
19736;BME280;32064;49.310;8.646;2023-05-10T09:50:07;100172.44;;;23.24;59.50
19736;BME280;32064;49.310;8.646;2023-05-10T09:52:57;100180.19;;;24.16;56.18
19736;BME280;32064;49.310;8.646;2023-05-10T09:55:44;100186.66;;;24.35;57.80
19736;BME280;32064;49.310;8.646;2023-05-10T09:58:12;100182.28;;;24.34;57.58
19736;BME280;32064;49.310;8.646;2023-05-10T10:00:42;100176.78;;;24.62;56.45
19736;BME280;32064;49.310;8.646;2023-05-10T10:03:16;100179.91;;;24.79;56.23
19736;BME280;32064;49.310;8.646;2023-05-10T10:05:43;100179.13;;;25.25;55.61
19736;BME280;32064;49.310;8.646;2023-05-10T10:08:09;100185.50;;;25.51;55.29
19736;BME280;32064;49.310;8.646;2023-05-10T10:10:34;100179.47;;;25.56;55.20
19736;BME280;32064;49.310;8.646;2023-05-10T10:13:01;100178.59;;;25.62;54.33
19736;BME280;32064;49.310;8.646;2023-05-10T10:15:27;100191.31;;;25.41;54.29
19736;BME280;32064;49.310;8.646;2023-05-10T10:17:53;100192.81;;;25.17;53.78
19736;BME280;32064;49.310;8.646;2023-05-10T10:20:20;100180.56;;;25.28;52.59
19736;BME280;32064;49.310;8.646;2023-05-10T10:22:46;100190.25;;;25.49;51.95
19736;BME280;32064;49.310;8.646;2023-05-10T10:25:13;100179.09;;;25.45;51.70
19736;BME280;32064;49.310;8.646;2023-05-10T10:27:55;100190.25;;;25.62;51.02
19736;BME280;32064;49.310;8.646;2023-05-10T10:30:41;100192.03;;;25.82;50.17
19736;BME280;32064;49.310;8.646;2023-05-10T10:33:40;100195.53;;;26.02;48.41
19736;BME280;32064;49.310;8.646;2023-05-10T10:36:12;100187.69;;;26.32;49.21
19736;BME280;32064;49.310;8.646;2023-05-10T10:41:29;100196.00;;;25.86;50.17
19736;BME280;32064;49.310;8.646;2023-05-10T10:49:51;100192.25;;;24.40;51.00
19736;BME280;32064;49.310;8.646;2023-05-10T10:52:25;100181.00;;;24.10;50.72
19736;BME280;32064;49.310;8.646;2023-05-10T10:55:06;100187.34;;;23.96;51.96
19736;BME280;32064;49.310;8.646;2023-05-10T10:57:52;100187.69;;;23.80;50.82
19736;BME280;32064;49.310;8.646;2023-05-10T11:00:35;100185.06;;;23.58;51.19
19736;BME280;32064;49.310;8.646;2023-05-10T11:03:05;100184.78;;;23.46;50.71
19736;BME280;32064;49.310;8.646;2023-05-10T11:08:08;100188.19;;;23.62;51.08
19736;BME280;32064;49.310;8.646;2023-05-10T11:10:34;100195.56;;;23.88;49.99
19736;BME280;32064;49.310;8.646;2023-05-10T11:13:04;100190.19;;;23.81;51.40
19736;BME280;32064;49.310;8.646;2023-05-10T11:15:40;100194.50;;;23.75;50.83
19736;BME280;32064;49.310;8.646;2023-05-10T11:18:19;100197.19;;;23.82;49.89
19736;BME280;32064;49.310;8.646;2023-05-10T11:20:50;100200.22;;;24.14;49.51
19736;BME280;32064;49.310;8.646;2023-05-10T11:23:16;100198.72;;;24.53;49.73
19736;BME280;32064;49.310;8.646;2023-05-10T11:25:43;100194.41;;;24.98;47.83
19736;BME280;32064;49.310;8.646;2023-05-10T11:28:09;100204.38;;;24.98;47.73
19736;BME280;32064;49.310;8.646;2023-05-10T11:30:36;100202.72;;;25.03;46.99
19736;BME280;32064;49.310;8.646;2023-05-10T11:33:02;100202.09;;;24.95;47.32
19736;BME280;32064;49.310;8.646;2023-05-10T11:35:27;100203.94;;;24.81;47.06
19736;BME280;32064;49.310;8.646;2023-05-10T11:37:53;100207.84;;;24.65;47.79
19736;BME280;32064;49.310;8.646;2023-05-10T11:40:18;100207.06;;;24.23;47.27
19736;BME280;32064;49.310;8.646;2023-05-10T11:42:44;100207.63;;;23.98;47.36
19736;BME280;32064;49.310;8.646;2023-05-10T11:45:10;100214.13;;;23.76;48.47
19736;BME280;32064;49.310;8.646;2023-05-10T11:47:36;100216.44;;;23.58;48.57
19736;BME280;32064;49.310;8.646;2023-05-10T11:50:02;100211.06;;;23.58;49.64
19736;BME280;32064;49.310;8.646;2023-05-10T11:52:28;100213.16;;;23.56;49.64
19736;BME280;32064;49.310;8.646;2023-05-10T11:54:54;100213.63;;;23.38;50.69
19736;BME280;32064;49.310;8.646;2023-05-10T11:57:25;100222.53;;;23.10;50.90
19736;BME280;32064;49.310;8.646;2023-05-10T11:59:54;100226.84;;;22.68;51.38
19736;BME280;32064;49.310;8.646;2023-05-10T12:02:23;100231.91;;;22.41;52.18
19736;BME280;32064;49.310;8.646;2023-05-10T12:04:49;100233.63;;;22.13;53.05
19736;BME280;32064;49.310;8.646;2023-05-10T12:07:16;100231.72;;;21.77;53.88
19736;BME280;32064;49.310;8.646;2023-05-10T12:12:27;100231.22;;;21.44;54.01
19736;BME280;32064;49.310;8.646;2023-05-10T12:14:52;100238.97;;;21.39;54.15
19736;BME280;32064;49.310;8.646;2023-05-10T12:17:17;100236.16;;;21.32;54.36
19736;BME280;32064;49.310;8.646;2023-05-10T12:19:43;100244.31;;;21.39;54.27
19736;BME280;32064;49.310;8.646;2023-05-10T12:22:10;100236.13;;;21.40;54.13
19736;BME280;32064;49.310;8.646;2023-05-10T12:24:36;100239.81;;;21.54;53.64
19736;BME280;32064;49.310;8.646;2023-05-10T12:27:08;100236.50;;;21.82;52.58
19736;BME280;32064;49.310;8.646;2023-05-10T12:29:33;100237.50;;;22.10;52.36
19736;BME280;32064;49.310;8.646;2023-05-10T12:31:59;100236.50;;;22.26;51.55
19736;BME280;32064;49.310;8.646;2023-05-10T12:34:33;100236.19;;;22.36;51.26
19736;BME280;32064;49.310;8.646;2023-05-10T12:36:59;100236.16;;;22.51;50.49
19736;BME280;32064;49.310;8.646;2023-05-10T12:39:25;100236.13;;;22.66;51.14
19736;BME280;32064;49.310;8.646;2023-05-10T12:41:51;100241.97;;;22.76;50.10
19736;BME280;32064;49.310;8.646;2023-05-10T12:44:17;100238.50;;;22.97;50.85
19736;BME280;32064;49.310;8.646;2023-05-10T12:46:42;100235.16;;;22.95;48.34
19736;BME280;32064;49.310;8.646;2023-05-10T12:49:08;100229.53;;;22.90;48.92
19736;BME280;32064;49.310;8.646;2023-05-10T12:51:33;100233.59;;;23.00;49.78
19736;BME280;32064;49.310;8.646;2023-05-10T12:53:59;100238.81;;;23.08;49.23
19736;BME280;32064;49.310;8.646;2023-05-10T12:56:24;100240.47;;;23.09;49.12
19736;BME280;32064;49.310;8.646;2023-05-10T12:58:50;100234.34;;;23.16;48.38
19736;BME280;32064;49.310;8.646;2023-05-10T13:01:16;100237.25;;;23.21;49.19
19736;BME280;32064;49.310;8.646;2023-05-10T13:03:41;100231.97;;;23.27;49.04
19736;BME280;32064;49.310;8.646;2023-05-10T13:06:08;100228.75;;;23.39;48.99
19736;BME280;32064;49.310;8.646;2023-05-10T13:08:33;100225.38;;;23.58;48.37
19736;BME280;32064;49.310;8.646;2023-05-10T13:11:00;100227.19;;;23.58;47.96
19736;BME280;32064;49.310;8.646;2023-05-10T13:13:25;100228.72;;;23.67;46.88
19736;BME280;32064;49.310;8.646;2023-05-10T13:15:51;100221.16;;;23.77;47.01
19736;BME280;32064;49.310;8.646;2023-05-10T13:18:17;100217.75;;;23.96;47.36